• Join FlightAware (Why Join?)
  • Login
  • US Flag 
02:36PM EST


 

Airport Tracker/Info


-or-


 

Live Flight TrackerFlight Track Log ✈ AWE9325 ✈ 19-Apr-2013 ✈ KLAX - KPHX

Flight Track Log - Related Links

Times and Time Zones

All times are in EDT time to prevent confusion due to time zone crossing. See the AWE9325 flight status page for this flight to view local times or setup timezone preferences in your user account.

Time Position Orientation Groundspeed Altitude Reporting Facility
EDT Latitude Longitude Course Direction KTS MPH feet Rate Location/Type
07:34PM 33.9236 -118.0634 94° East  Level Estimated
07:35PM 33.9172 -117.9486 94° East  Level Estimated
07:36PM 33.9106 -117.8337 94° East  Level Estimated
07:37PM 33.9039 -117.7189 94° East  Level Estimated
07:38PM 33.8970 -117.6041 94° East  Level Estimated
07:39PM 33.8901 -117.4894 94° East  Level Estimated
07:40PM 33.8831 -117.3746 94° East  Level Estimated
07:41PM 33.8760 -117.2599 94° East  Level Estimated
07:42PM 33.8687 -117.1451 94° East  Level Estimated
07:43PM 33.8614 -117.0304 94° East  Level Estimated
07:44PM 33.8539 -116.9158 94° East  Level Estimated
07:45PM 33.8464 -116.8011 95° East  Level Estimated
07:46PM 33.8387 -116.6865 95° East  Level Estimated
07:47PM 33.8309 -116.5718 95° East  Level Estimated
07:48PM 33.8231 -116.4572 95° East  Level Estimated
07:49PM 33.8151 -116.3427 95° East  Level Estimated
07:50PM 33.8070 -116.2281 95° East  Level Estimated
07:51PM 33.7988 -116.1136 95° East  Level Estimated
07:52PM 33.7905 -115.9991 95° East  Level Estimated
07:53PM 33.7821 -115.8846 95° East  Level Estimated
07:54PM 33.7736 -115.7701 95° East  Level Estimated
07:55PM 33.7649 -115.6557 95° East  Level Estimated
07:56PM 33.7562 -115.5413 95° East  Level Estimated
07:57PM 33.7474 -115.4268 95° East  Level Estimated
07:58PM 33.7385 -115.3125 95° East  Level Estimated
07:59PM 33.7294 -115.1981 95° East  Level Estimated
08:00PM 33.7203 -115.0838 95° East  Level Estimated
08:01PM 33.7110 -114.9695 96° East  Level Estimated
08:02PM 33.7017 -114.8552 96° East  Level Estimated
08:03PM 33.6922 -114.7410 96° East  Level Estimated
08:04PM 33.6827 -114.6267 96° East  Level Estimated
08:05PM 33.6730 -114.5126 96° East  Level Estimated
08:06PM 33.6632 -114.3984 96° East  Level Estimated
08:07PM 33.6533 -114.2842 96° East  Level Estimated
08:08PM 33.6434 -114.1701 96° East  Level Estimated
08:09PM 33.6333 -114.0560 96° East  Level Estimated
08:10PM 33.6231 -113.9419 96° East  Level Estimated
08:11PM 33.6128 -113.8279 96° East  Level Estimated
08:12PM 33.6024 -113.7139 96° East  Level Estimated
08:13PM 33.5911 -113.5911 96° East  Level Estimated
08:14PM 33.5796 -113.4684 96° East  Level Estimated
08:15PM 33.5681 -113.3457 96° East  Level Estimated
08:16PM 33.5564 -113.2231 96° East  Level Estimated
08:17PM 33.5446 -113.1005 97° East  Level Estimated
08:18PM 33.5333 -112.9846 97° East  Level Estimated
08:19PM 33.5219 -112.8687 97° East  Level Estimated
08:20PM 33.5104 -112.7529 97° East  Level Estimated
08:21PM 33.4988 -112.6370 97° East  Level Estimated
08:22PM 33.4871 -112.5213 97° East  Level Estimated
08:23PM 33.4753 -112.4055 97° East  Level Estimated
08:24PM 33.4634 -112.2898 97° East  Level Estimated
08:25PM 33.4514 -112.1741 97° East  Level Estimated
08:26PM 33.4392 -112.0585 97° East  Level Estimated
08:27PM 33.4343 -112.0116 97° East  Level Estimated
08:28PM 33.4343 -112.0116 231° Southwest  Level Estimated
08:29PM 33.4343 -112.0116 231° Southwest  Level Estimated